sensor_id;sensor_type;location;lat;lon;timestamp;P1;durP1;ratioP1;P2;durP2;ratioP2
48951;SDS011;34758;42.148;24.744;2024-02-14T00:01:26;0.40;;;0.20;;
48951;SDS011;34758;42.148;24.744;2024-02-14T00:03:58;0.30;;;0.10;;
48951;SDS011;34758;42.148;24.744;2024-02-14T00:06:27;0.63;;;0.10;;
48951;SDS011;34758;42.148;24.744;2024-02-14T00:08:55;0.20;;;0.20;;
48951;SDS011;34758;42.148;24.744;2024-02-14T00:11:25;0.28;;;0.20;;
48951;SDS011;34758;42.148;24.744;2024-02-14T00:13:54;0.68;;;0.10;;
48951;SDS011;34758;42.148;24.744;2024-02-14T00:16:23;0.28;;;0.10;;
48951;SDS011;34758;42.148;24.744;2024-02-14T00:18:53;1.50;;;0.10;;
48951;SDS011;34758;42.148;24.744;2024-02-14T00:21:27;0.70;;;0.25;;
48951;SDS011;34758;42.148;24.744;2024-02-14T00:23:56;2.42;;;0.17;;
48951;SDS011;34758;42.148;24.744;2024-02-14T00:26:26;0.70;;;0.10;;
48951;SDS011;34758;42.148;24.744;2024-02-14T00:28:54;0.47;;;0.20;;
48951;SDS011;34758;42.148;24.744;2024-02-14T00:31:23;1.20;;;0.10;;
48951;SDS011;34758;42.148;24.744;2024-02-14T00:33:52;0.20;;;0.10;;
48951;SDS011;34758;42.148;24.744;2024-02-14T00:36:20;0.50;;;0.20;;
48951;SDS011;34758;42.148;24.744;2024-02-14T00:38:53;1.40;;;0.20;;
48951;SDS011;34758;42.148;24.744;2024-02-14T00:41:21;0.50;;;0.20;;
48951;SDS011;34758;42.148;24.744;2024-02-14T00:43:52;0.40;;;0.32;;
48951;SDS011;34758;42.148;24.744;2024-02-14T00:46:20;0.40;;;0.20;;
48951;SDS011;34758;42.148;24.744;2024-02-14T00:48:51;0.63;;;0.30;;
48951;SDS011;34758;42.148;24.744;2024-02-14T00:51:21;1.38;;;0.20;;
48951;SDS011;34758;42.148;24.744;2024-02-14T00:53:55;1.45;;;0.20;;
48951;SDS011;34758;42.148;24.744;2024-02-14T00:56:23;0.65;;;0.20;;
48951;SDS011;34758;42.148;24.744;2024-02-14T00:58:51;0.70;;;0.10;;
48951;SDS011;34758;42.148;24.744;2024-02-14T01:01:23;1.33;;;0.25;;
48951;SDS011;34758;42.148;24.744;2024-02-14T01:03:55;1.53;;;0.20;;
48951;SDS011;34758;42.148;24.744;2024-02-14T01:06:29;0.45;;;0.20;;
48951;SDS011;34758;42.148;24.744;2024-02-14T01:09:03;0.45;;;0.20;;
48951;SDS011;34758;42.148;24.744;2024-02-14T01:11:34;0.40;;;0.20;;
48951;SDS011;34758;42.148;24.744;2024-02-14T01:14:05;0.40;;;0.15;;
48951;SDS011;34758;42.148;24.744;2024-02-14T01:16:34;0.30;;;0.15;;
48951;SDS011;34758;42.148;24.744;2024-02-14T01:19:12;0.25;;;0.10;;
48951;SDS011;34758;42.148;24.744;2024-02-14T01:21:44;0.40;;;0.13;;
48951;SDS011;34758;42.148;24.744;2024-02-14T01:24:16;1.55;;;0.43;;
48951;SDS011;34758;42.148;24.744;2024-02-14T01:26:48;0.35;;;0.10;;
48951;SDS011;34758;42.148;24.744;2024-02-14T01:29:21;0.50;;;0.15;;
48951;SDS011;34758;42.148;24.744;2024-02-14T01:31:54;0.75;;;0.22;;
48951;SDS011;34758;42.148;24.744;2024-02-14T01:34:22;0.35;;;0.13;;
48951;SDS011;34758;42.148;24.744;2024-02-14T01:36:50;0.70;;;0.10;;
48951;SDS011;34758;42.148;24.744;2024-02-14T01:39:26;0.40;;;0.20;;
48951;SDS011;34758;42.148;24.744;2024-02-14T01:41:54;0.80;;;0.20;;
48951;SDS011;34758;42.148;24.744;2024-02-14T01:44:23;0.25;;;0.10;;
48951;SDS011;34758;42.148;24.744;2024-02-14T01:46:55;0.20;;;0.17;;
48951;SDS011;34758;42.148;24.744;2024-02-14T01:49:32;0.85;;;0.40;;
48951;SDS011;34758;42.148;24.744;2024-02-14T01:52:04;0.50;;;0.20;;
48951;SDS011;34758;42.148;24.744;2024-02-14T01:54:52;0.43;;;0.20;;
48951;SDS011;34758;42.148;24.744;2024-02-14T01:57:35;0.68;;;0.10;;
48951;SDS011;34758;42.148;24.744;2024-02-14T02:00:07;0.50;;;0.20;;
48951;SDS011;34758;42.148;24.744;2024-02-14T02:02:46;0.82;;;0.20;;
48951;SDS011;34758;42.148;24.744;2024-02-14T02:05:16;0.30;;;0.17;;
48951;SDS011;34758;42.148;24.744;2024-02-14T02:07:48;0.70;;;0.20;;
48951;SDS011;34758;42.148;24.744;2024-02-14T02:10:22;1.70;;;0.20;;
48951;SDS011;34758;42.148;24.744;2024-02-14T02:12:57;0.50;;;0.20;;
48951;SDS011;34758;42.148;24.744;2024-02-14T02:15:26;0.88;;;0.40;;
48951;SDS011;34758;42.148;24.744;2024-02-14T02:17:57;0.52;;;0.28;;
48951;SDS011;34758;42.148;24.744;2024-02-14T02:20:27;0.30;;;0.22;;
48951;SDS011;34758;42.148;24.744;2024-02-14T02:23:04;1.15;;;0.55;;
48951;SDS011;34758;42.148;24.744;2024-02-14T02:25:41;0.70;;;0.30;;
48951;SDS011;34758;42.148;24.744;2024-02-14T02:28:13;0.60;;;0.30;;
48951;SDS011;34758;42.148;24.744;2024-02-14T02:30:43;1.10;;;0.20;;
48951;SDS011;34758;42.148;24.744;2024-02-14T02:33:12;0.80;;;0.30;;
48951;SDS011;34758;42.148;24.744;2024-02-14T02:35:42;1.88;;;0.52;;
48951;SDS011;34758;42.148;24.744;2024-02-14T02:38:12;1.27;;;0.38;;
48951;SDS011;34758;42.148;24.744;2024-02-14T02:40:41;1.83;;;0.40;;
48951;SDS011;34758;42.148;24.744;2024-02-14T02:45:39;1.27;;;0.60;;
48951;SDS011;34758;42.148;24.744;2024-02-14T02:48:09;0.70;;;0.30;;
48951;SDS011;34758;42.148;24.744;2024-02-14T02:50:38;0.70;;;0.30;;
48951;SDS011;34758;42.148;24.744;2024-02-14T02:53:07;0.98;;;0.43;;
48951;SDS011;34758;42.148;24.744;2024-02-14T02:55:37;1.92;;;0.50;;
48951;SDS011;34758;42.148;24.744;2024-02-14T02:58:09;0.60;;;0.40;;
48951;SDS011;34758;42.148;24.744;2024-02-14T03:00:38;1.08;;;0.50;;
48951;SDS011;34758;42.148;24.744;2024-02-14T03:03:08;0.77;;;0.38;;
48951;SDS011;34758;42.148;24.744;2024-02-14T03:05:41;0.98;;;0.68;;
48951;SDS011;34758;42.148;24.744;2024-02-14T03:08:13;0.52;;;0.40;;
48951;SDS011;34758;42.148;24.744;2024-02-14T03:10:46;1.42;;;0.60;;
48951;SDS011;34758;42.148;24.744;2024-02-14T03:13:15;1.02;;;0.52;;
48951;SDS011;34758;42.148;24.744;2024-02-14T03:15:48;0.98;;;0.60;;
48951;SDS011;34758;42.148;24.744;2024-02-14T03:18:17;0.80;;;0.50;;
48951;SDS011;34758;42.148;24.744;2024-02-14T03:20:47;0.98;;;0.52;;
48951;SDS011;34758;42.148;24.744;2024-02-14T03:23:16;1.15;;;0.82;;
48951;SDS011;34758;42.148;24.744;2024-02-14T03:25:46;1.42;;;0.88;;
48951;SDS011;34758;42.148;24.744;2024-02-14T03:28:15;0.85;;;0.65;;
48951;SDS011;34758;42.148;24.744;2024-02-14T03:30:43;2.05;;;0.80;;
48951;SDS011;34758;42.148;24.744;2024-02-14T03:33:12;1.52;;;1.27;;
48951;SDS011;34758;42.148;24.744;2024-02-14T03:35:41;1.73;;;0.75;;
48951;SDS011;34758;42.148;24.744;2024-02-14T03:38:10;1.30;;;0.98;;
48951;SDS011;34758;42.148;24.744;2024-02-14T03:40:45;1.38;;;1.10;;
48951;SDS011;34758;42.148;24.744;2024-02-14T03:43:14;2.17;;;1.33;;
48951;SDS011;34758;42.148;24.744;2024-02-14T03:45:47;1.52;;;1.30;;
48951;SDS011;34758;42.148;24.744;2024-02-14T03:48:14;1.40;;;1.20;;
48951;SDS011;34758;42.148;24.744;2024-02-14T03:50:43;1.40;;;1.00;;
48951;SDS011;34758;42.148;24.744;2024-02-14T03:53:13;1.25;;;1.05;;
48951;SDS011;34758;42.148;24.744;2024-02-14T03:55:42;1.73;;;1.40;;
48951;SDS011;34758;42.148;24.744;2024-02-14T03:58:11;1.80;;;1.58;;
48951;SDS011;34758;42.148;24.744;2024-02-14T04:00:41;2.17;;;1.58;;
48951;SDS011;34758;42.148;24.744;2024-02-14T04:03:11;3.15;;;1.50;;
48951;SDS011;34758;42.148;24.744;2024-02-14T04:05:41;1.67;;;1.50;;
48951;SDS011;34758;42.148;24.744;2024-02-14T04:08:10;1.88;;;1.60;;
48951;SDS011;34758;42.148;24.744;2024-02-14T04:10:38;2.03;;;1.83;;
48951;SDS011;34758;42.148;24.744;2024-02-14T04:13:07;2.60;;;1.33;;
48951;SDS011;34758;42.148;24.744;2024-02-14T04:15:38;2.08;;;1.83;;
48951;SDS011;34758;42.148;24.744;2024-02-14T04:20:39;2.03;;;1.90;;
48951;SDS011;34758;42.148;24.744;2024-02-14T04:23:08;3.28;;;2.85;;
48951;SDS011;34758;42.148;24.744;2024-02-14T04:25:42;3.30;;;3.00;;
48951;SDS011;34758;42.148;24.744;2024-02-14T04:28:09;3.00;;;1.98;;
48951;SDS011;34758;42.148;24.744;2024-02-14T04:30:39;3.08;;;1.90;;
48951;SDS011;34758;42.148;24.744;2024-02-14T04:33:09;3.08;;;1.75;;
48951;SDS011;34758;42.148;24.744;2024-02-14T04:35:39;1.92;;;1.60;;
48951;SDS011;34758;42.148;24.744;2024-02-14T04:38:06;2.15;;;1.42;;
48951;SDS011;34758;42.148;24.744;2024-02-14T04:40:38;1.73;;;1.63;;
48951;SDS011;34758;42.148;24.744;2024-02-14T04:43:08;2.00;;;1.80;;
48951;SDS011;34758;42.148;24.744;2024-02-14T04:45:40;2.97;;;1.73;;
48951;SDS011;34758;42.148;24.744;2024-02-14T04:48:11;2.17;;;1.80;;
48951;SDS011;34758;42.148;24.744;2024-02-14T04:50:43;2.20;;;1.60;;
48951;SDS011;34758;42.148;24.744;2024-02-14T04:53:15;2.53;;;2.33;;
48951;SDS011;34758;42.148;24.744;2024-02-14T04:55:45;3.72;;;1.90;;
48951;SDS011;34758;42.148;24.744;2024-02-14T04:58:12;2.20;;;1.85;;
48951;SDS011;34758;42.148;24.744;2024-02-14T05:00:45;2.45;;;2.00;;
48951;SDS011;34758;42.148;24.744;2024-02-14T05:03:14;1.88;;;1.70;;
48951;SDS011;34758;42.148;24.744;2024-02-14T05:05:43;2.15;;;1.90;;
48951;SDS011;34758;42.148;24.744;2024-02-14T05:08:14;2.13;;;1.92;;
48951;SDS011;34758;42.148;24.744;2024-02-14T05:10:42;2.50;;;2.30;;
48951;SDS011;34758;42.148;24.744;2024-02-14T05:13:11;2.60;;;2.40;;
48951;SDS011;34758;42.148;24.744;2024-02-14T05:15:38;2.90;;;2.38;;
48951;SDS011;34758;42.148;24.744;2024-02-14T05:18:09;4.25;;;2.55;;
48951;SDS011;34758;42.148;24.744;2024-02-14T05:20:38;2.83;;;2.00;;
48951;SDS011;34758;42.148;24.744;2024-02-14T05:25:38;3.00;;;2.65;;
48951;SDS011;34758;42.148;24.744;2024-02-14T05:28:07;2.60;;;2.22;;
48951;SDS011;34758;42.148;24.744;2024-02-14T05:30:39;2.95;;;2.40;;
48951;SDS011;34758;42.148;24.744;2024-02-14T05:33:06;3.53;;;2.72;;
48951;SDS011;34758;42.148;24.744;2024-02-14T05:35:41;4.00;;;2.53;;
48951;SDS011;34758;42.148;24.744;2024-02-14T05:38:13;3.17;;;2.30;;
48951;SDS011;34758;42.148;24.744;2024-02-14T05:40:45;3.28;;;2.25;;
48951;SDS011;34758;42.148;24.744;2024-02-14T05:43:14;3.05;;;2.75;;
48951;SDS011;34758;42.148;24.744;2024-02-14T05:45:44;3.22;;;2.60;;
48951;SDS011;34758;42.148;24.744;2024-02-14T05:48:12;4.18;;;2.92;;
48951;SDS011;34758;42.148;24.744;2024-02-14T05:50:47;3.50;;;2.58;;
48951;SDS011;34758;42.148;24.744;2024-02-14T05:53:16;3.88;;;3.20;;
48951;SDS011;34758;42.148;24.744;2024-02-14T05:55:46;4.55;;;3.33;;
48951;SDS011;34758;42.148;24.744;2024-02-14T05:58:13;3.28;;;2.95;;
48951;SDS011;34758;42.148;24.744;2024-02-14T06:00:41;3.45;;;2.88;;
48951;SDS011;34758;42.148;24.744;2024-02-14T06:03:09;3.42;;;2.88;;
48951;SDS011;34758;42.148;24.744;2024-02-14T06:05:40;3.58;;;2.95;;
48951;SDS011;34758;42.148;24.744;2024-02-14T06:08:10;3.92;;;2.40;;
48951;SDS011;34758;42.148;24.744;2024-02-14T06:10:37;3.42;;;2.35;;
48951;SDS011;34758;42.148;24.744;2024-02-14T06:13:06;4.43;;;2.55;;
48951;SDS011;34758;42.148;24.744;2024-02-14T06:15:35;3.22;;;1.83;;
48951;SDS011;34758;42.148;24.744;2024-02-14T06:18:05;3.20;;;2.35;;
48951;SDS011;34758;42.148;24.744;2024-02-14T06:20:34;3.58;;;2.47;;
48951;SDS011;34758;42.148;24.744;2024-02-14T06:23:06;3.00;;;2.33;;
48951;SDS011;34758;42.148;24.744;2024-02-14T06:25:37;2.75;;;1.90;;
48951;SDS011;34758;42.148;24.744;2024-02-14T06:28:08;4.68;;;2.67;;
48951;SDS011;34758;42.148;24.744;2024-02-14T06:30:39;3.43;;;2.63;;
48951;SDS011;34758;42.148;24.744;2024-02-14T06:33:10;4.50;;;2.65;;
48951;SDS011;34758;42.148;24.744;2024-02-14T06:35:37;4.00;;;2.95;;
48951;SDS011;34758;42.148;24.744;2024-02-14T06:38:07;5.13;;;2.50;;
48951;SDS011;34758;42.148;24.744;2024-02-14T06:40:34;3.35;;;2.83;;
48951;SDS011;34758;42.148;24.744;2024-02-14T06:43:06;3.95;;;3.08;;
48951;SDS011;34758;42.148;24.744;2024-02-14T06:45:33;3.28;;;2.38;;
48951;SDS011;34758;42.148;24.744;2024-02-14T06:48:04;3.10;;;2.80;;
48951;SDS011;34758;42.148;24.744;2024-02-14T06:50:34;2.80;;;2.53;;
48951;SDS011;34758;42.148;24.744;2024-02-14T06:53:04;2.90;;;2.58;;
48951;SDS011;34758;42.148;24.744;2024-02-14T06:55:32;4.18;;;2.65;;
48951;SDS011;34758;42.148;24.744;2024-02-14T06:58:02;5.18;;;2.70;;
48951;SDS011;34758;42.148;24.744;2024-02-14T07:00:38;5.10;;;2.95;;
48951;SDS011;34758;42.148;24.744;2024-02-14T07:03:07;6.15;;;3.45;;
48951;SDS011;34758;42.148;24.744;2024-02-14T07:05:36;4.32;;;3.10;;
48951;SDS011;34758;42.148;24.744;2024-02-14T07:08:05;3.42;;;3.05;;
48951;SDS011;34758;42.148;24.744;2024-02-14T07:10:34;3.60;;;2.85;;
48951;SDS011;34758;42.148;24.744;2024-02-14T07:13:02;5.60;;;2.85;;
48951;SDS011;34758;42.148;24.744;2024-02-14T07:15:31;3.00;;;2.70;;
48951;SDS011;34758;42.148;24.744;2024-02-14T07:18:04;4.70;;;3.15;;
48951;SDS011;34758;42.148;24.744;2024-02-14T07:20:35;3.88;;;2.92;;
48951;SDS011;34758;42.148;24.744;2024-02-14T07:23:07;3.88;;;3.50;;
48951;SDS011;34758;42.148;24.744;2024-02-14T07:25:34;4.82;;;3.95;;
48951;SDS011;34758;42.148;24.744;2024-02-14T07:28:02;7.65;;;4.43;;
48951;SDS011;34758;42.148;24.744;2024-02-14T07:30:32;6.03;;;4.15;;
48951;SDS011;34758;42.148;24.744;2024-02-14T07:35:34;8.60;;;6.32;;
48951;SDS011;34758;42.148;24.744;2024-02-14T07:38:04;6.45;;;4.90;;
48951;SDS011;34758;42.148;24.744;2024-02-14T07:40:31;6.38;;;5.10;;
48951;SDS011;34758;42.148;24.744;2024-02-14T07:43:00;5.88;;;4.38;;
48951;SDS011;34758;42.148;24.744;2024-02-14T07:45:28;4.47;;;3.92;;
48951;SDS011;34758;42.148;24.744;2024-02-14T07:47:58;4.85;;;3.33;;
48951;SDS011;34758;42.148;24.744;2024-02-14T07:50:26;6.70;;;4.13;;
48951;SDS011;34758;42.148;24.744;2024-02-14T07:52:58;3.78;;;3.30;;
48951;SDS011;34758;42.148;24.744;2024-02-14T07:55:26;5.30;;;3.92;;
48951;SDS011;34758;42.148;24.744;2024-02-14T07:57:54;3.90;;;3.20;;
48951;SDS011;34758;42.148;24.744;2024-02-14T08:00:21;6.03;;;3.90;;
48951;SDS011;34758;42.148;24.744;2024-02-14T08:02:50;6.13;;;3.50;;
48951;SDS011;34758;42.148;24.744;2024-02-14T08:05:18;4.38;;;3.47;;
48951;SDS011;34758;42.148;24.744;2024-02-14T08:07:48;6.55;;;3.63;;
48951;SDS011;34758;42.148;24.744;2024-02-14T08:10:15;6.03;;;3.30;;
48951;SDS011;34758;42.148;24.744;2024-02-14T08:12:42;5.35;;;3.60;;
48951;SDS011;34758;42.148;24.744;2024-02-14T08:15:10;4.47;;;3.80;;
48951;SDS011;34758;42.148;24.744;2024-02-14T08:17:39;10.00;;;4.15;;
48951;SDS011;34758;42.148;24.744;2024-02-14T08:20:07;4.82;;;3.85;;
48951;SDS011;34758;42.148;24.744;2024-02-14T08:22:36;5.88;;;3.50;;
48951;SDS011;34758;42.148;24.744;2024-02-14T08:25:07;7.28;;;3.72;;
48951;SDS011;34758;42.148;24.744;2024-02-14T08:27:36;4.50;;;3.70;;
48951;SDS011;34758;42.148;24.744;2024-02-14T08:30:04;5.07;;;4.10;;
48951;SDS011;34758;42.148;24.744;2024-02-14T08:32:33;6.47;;;4.38;;
48951;SDS011;34758;42.148;24.744;2024-02-14T08:35:02;7.03;;;4.50;;
48951;SDS011;34758;42.148;24.744;2024-02-14T08:37:31;5.15;;;4.53;;
48951;SDS011;34758;42.148;24.744;2024-02-14T08:40:03;5.38;;;4.32;;
48951;SDS011;34758;42.148;24.744;2024-02-14T08:42:33;8.73;;;5.38;;
48951;SDS011;34758;42.148;24.744;2024-02-14T08:45:03;8.07;;;5.32;;
48951;SDS011;34758;42.148;24.744;2024-02-14T08:47:31;5.05;;;4.50;;
48951;SDS011;34758;42.148;24.744;2024-02-14T08:50:00;4.72;;;4.07;;
48951;SDS011;34758;42.148;24.744;2024-02-14T08:52:28;5.35;;;4.25;;
48951;SDS011;34758;42.148;24.744;2024-02-14T08:54:56;5.50;;;4.32;;
48951;SDS011;34758;42.148;24.744;2024-02-14T08:57:24;7.45;;;4.88;;
48951;SDS011;34758;42.148;24.744;2024-02-14T08:59:54;5.75;;;4.68;;
48951;SDS011;34758;42.148;24.744;2024-02-14T09:02:26;7.25;;;4.40;;
48951;SDS011;34758;42.148;24.744;2024-02-14T09:04:54;12.25;;;5.07;;
48951;SDS011;34758;42.148;24.744;2024-02-14T09:07:22;8.18;;;4.75;;
48951;SDS011;34758;42.148;24.744;2024-02-14T09:09:50;5.22;;;4.55;;
48951;SDS011;34758;42.148;24.744;2024-02-14T09:12:18;5.55;;;4.28;;
48951;SDS011;34758;42.148;24.744;2024-02-14T09:14:46;5.88;;;4.68;;
48951;SDS011;34758;42.148;24.744;2024-02-14T09:17:16;6.00;;;4.93;;
48951;SDS011;34758;42.148;24.744;2024-02-14T09:19:44;5.82;;;4.97;;
48951;SDS011;34758;42.148;24.744;2024-02-14T09:22:15;7.07;;;5.18;;
48951;SDS011;34758;42.148;24.744;2024-02-14T09:24:47;5.85;;;4.80;;
48951;SDS011;34758;42.148;24.744;2024-02-14T09:27:15;5.32;;;4.60;;
48951;SDS011;34758;42.148;24.744;2024-02-14T09:29:43;5.28;;;4.78;;
48951;SDS011;34758;42.148;24.744;2024-02-14T09:32:13;5.85;;;5.25;;
48951;SDS011;34758;42.148;24.744;2024-02-14T09:34:42;5.22;;;4.72;;
48951;SDS011;34758;42.148;24.744;2024-02-14T09:37:13;6.00;;;5.22;;
48951;SDS011;34758;42.148;24.744;2024-02-14T09:39:42;6.45;;;5.43;;
48951;SDS011;34758;42.148;24.744;2024-02-14T09:42:11;6.32;;;4.93;;
48951;SDS011;34758;42.148;24.744;2024-02-14T09:44:40;6.30;;;5.15;;
48951;SDS011;34758;42.148;24.744;2024-02-14T09:47:09;7.20;;;6.07;;
48951;SDS011;34758;42.148;24.744;2024-02-14T09:49:37;8.57;;;6.03;;
48951;SDS011;34758;42.148;24.744;2024-02-14T09:52:06;7.55;;;6.22;;
48951;SDS011;34758;42.148;24.744;2024-02-14T09:54:38;7.80;;;6.30;;
48951;SDS011;34758;42.148;24.744;2024-02-14T09:57:06;6.68;;;5.85;;
48951;SDS011;34758;42.148;24.744;2024-02-14T09:59:35;5.68;;;5.18;;
48951;SDS011;34758;42.148;24.744;2024-02-14T10:02:03;6.65;;;5.25;;
48951;SDS011;34758;42.148;24.744;2024-02-14T10:04:33;8.57;;;5.38;;
48951;SDS011;34758;42.148;24.744;2024-02-14T10:07:02;6.20;;;5.60;;
48951;SDS011;34758;42.148;24.744;2024-02-14T10:09:41;5.43;;;4.82;;
48951;SDS011;34758;42.148;24.744;2024-02-14T10:12:08;6.22;;;5.50;;
48951;SDS011;34758;42.148;24.744;2024-02-14T10:14:38;6.18;;;5.57;;
48951;SDS011;34758;42.148;24.744;2024-02-14T10:17:06;9.25;;;5.32;;
48951;SDS011;34758;42.148;24.744;2024-02-14T10:19:36;8.43;;;5.55;;
48951;SDS011;34758;42.148;24.744;2024-02-14T10:22:03;7.72;;;5.88;;
48951;SDS011;34758;42.148;24.744;2024-02-14T10:24:33;6.90;;;5.65;;
48951;SDS011;34758;42.148;24.744;2024-02-14T10:27:05;6.22;;;5.22;;
48951;SDS011;34758;42.148;24.744;2024-02-14T10:29:34;6.40;;;5.15;;
48951;SDS011;34758;42.148;24.744;2024-02-14T10:32:03;7.00;;;5.25;;
48951;SDS011;34758;42.148;24.744;2024-02-14T10:34:33;6.40;;;5.22;;
48951;SDS011;34758;42.148;24.744;2024-02-14T10:37:01;5.82;;;4.63;;
48951;SDS011;34758;42.148;24.744;2024-02-14T10:39:31;4.88;;;4.38;;
48951;SDS011;34758;42.148;24.744;2024-02-14T10:42:00;4.53;;;4.05;;
48951;SDS011;34758;42.148;24.744;2024-02-14T10:44:31;4.55;;;4.05;;
48951;SDS011;34758;42.148;24.744;2024-02-14T10:46:59;6.35;;;4.40;;
48951;SDS011;34758;42.148;24.744;2024-02-14T10:49:28;6.05;;;4.38;;
48951;SDS011;34758;42.148;24.744;2024-02-14T10:51:56;9.68;;;5.82;;
48951;SDS011;34758;42.148;24.744;2024-02-14T10:56:55;5.38;;;4.82;;
48951;SDS011;34758;42.148;24.744;2024-02-14T10:59:26;5.55;;;4.63;;
48951;SDS011;34758;42.148;24.744;2024-02-14T11:01:56;5.15;;;4.57;;
48951;SDS011;34758;42.148;24.744;2024-02-14T11:04:25;5.35;;;4.50;;
48951;SDS011;34758;42.148;24.744;2024-02-14T11:07:01;9.35;;;5.68;;
48951;SDS011;34758;42.148;24.744;2024-02-14T11:09:33;6.38;;;4.05;;
48951;SDS011;34758;42.148;24.744;2024-02-14T11:12:02;4.57;;;3.88;;
48951;SDS011;34758;42.148;24.744;2024-02-14T11:14:31;4.68;;;4.20;;
48951;SDS011;34758;42.148;24.744;2024-02-14T11:17:04;5.30;;;4.17;;
48951;SDS011;34758;42.148;24.744;2024-02-14T11:19:34;6.55;;;4.10;;
48951;SDS011;34758;42.148;24.744;2024-02-14T11:22:17;5.07;;;4.40;;
48951;SDS011;34758;42.148;24.744;2024-02-14T11:24:46;4.40;;;4.00;;
48951;SDS011;34758;42.148;24.744;2024-02-14T11:27:14;6.07;;;3.45;;
48951;SDS011;34758;42.148;24.744;2024-02-14T11:29:51;4.05;;;3.60;;
48951;SDS011;34758;42.148;24.744;2024-02-14T11:32:21;4.93;;;4.03;;
48951;SDS011;34758;42.148;24.744;2024-02-14T11:34:53;5.05;;;4.05;;
48951;SDS011;34758;42.148;24.744;2024-02-14T11:37:27;4.10;;;3.60;;
48951;SDS011;34758;42.148;24.744;2024-02-14T11:39:56;5.22;;;3.70;;
48951;SDS011;34758;42.148;24.744;2024-02-14T11:42:24;5.43;;;4.28;;
48951;SDS011;34758;42.148;24.744;2024-02-14T11:44:53;4.00;;;3.60;;
48951;SDS011;34758;42.148;24.744;2024-02-14T11:47:24;4.45;;;3.90;;
48951;SDS011;34758;42.148;24.744;2024-02-14T11:49:51;6.05;;;4.80;;
48951;SDS011;34758;42.148;24.744;2024-02-14T11:52:19;6.32;;;4.25;;
48951;SDS011;34758;42.148;24.744;2024-02-14T11:54:47;4.53;;;4.13;;
48951;SDS011;34758;42.148;24.744;2024-02-14T11:57:19;4.90;;;4.00;;
48951;SDS011;34758;42.148;24.744;2024-02-14T11:59:48;6.03;;;4.05;;
48951;SDS011;34758;42.148;24.744;2024-02-14T12:02:19;5.00;;;4.13;;
48951;SDS011;34758;42.148;24.744;2024-02-14T12:04:50;4.93;;;4.43;;
48951;SDS011;34758;42.148;24.744;2024-02-14T12:07:19;5.20;;;3.95;;
48951;SDS011;34758;42.148;24.744;2024-02-14T12:09:48;7.15;;;4.10;;
48951;SDS011;34758;42.148;24.744;2024-02-14T12:12:17;5.85;;;3.83;;
48951;SDS011;34758;42.148;24.744;2024-02-14T12:14:47;4.82;;;4.03;;
48951;SDS011;34758;42.148;24.744;2024-02-14T12:17:19;4.18;;;3.40;;
48951;SDS011;34758;42.148;24.744;2024-02-14T12:19:47;5.22;;;3.42;;
48951;SDS011;34758;42.148;24.744;2024-02-14T12:22:19;7.15;;;3.85;;
48951;SDS011;34758;42.148;24.744;2024-02-14T12:24:47;5.60;;;3.72;;
48951;SDS011;34758;42.148;24.744;2024-02-14T12:27:16;4.20;;;3.80;;
48951;SDS011;34758;42.148;24.744;2024-02-14T12:29:45;5.63;;;3.67;;
48951;SDS011;34758;42.148;24.744;2024-02-14T12:32:16;5.38;;;3.35;;
48951;SDS011;34758;42.148;24.744;2024-02-14T12:34:44;5.15;;;3.33;;
48951;SDS011;34758;42.148;24.744;2024-02-14T12:37:13;4.65;;;3.70;;
48951;SDS011;34758;42.148;24.744;2024-02-14T12:39:41;4.15;;;3.75;;
48951;SDS011;34758;42.148;24.744;2024-02-14T12:42:10;6.75;;;4.25;;
48951;SDS011;34758;42.148;24.744;2024-02-14T12:44:37;4.63;;;4.05;;
48951;SDS011;34758;42.148;24.744;2024-02-14T12:47:09;5.97;;;4.07;;
48951;SDS011;34758;42.148;24.744;2024-02-14T12:49:36;3.92;;;3.60;;
48951;SDS011;34758;42.148;24.744;2024-02-14T12:52:05;6.07;;;4.03;;
48951;SDS011;34758;42.148;24.744;2024-02-14T12:54:37;8.80;;;4.00;;
48951;SDS011;34758;42.148;24.744;2024-02-14T12:57:05;5.03;;;3.92;;
48951;SDS011;34758;42.148;24.744;2024-02-14T12:59:32;5.38;;;3.88;;
48951;SDS011;34758;42.148;24.744;2024-02-14T13:01:59;4.95;;;3.30;;
48951;SDS011;34758;42.148;24.744;2024-02-14T13:04:28;3.38;;;2.88;;
48951;SDS011;34758;42.148;24.744;2024-02-14T13:06:58;5.03;;;3.70;;
48951;SDS011;34758;42.148;24.744;2024-02-14T13:09:25;3.53;;;3.10;;
48951;SDS011;34758;42.148;24.744;2024-02-14T13:11:56;5.60;;;3.40;;
48951;SDS011;34758;42.148;24.744;2024-02-14T13:14:23;5.18;;;3.63;;
48951;SDS011;34758;42.148;24.744;2024-02-14T13:16:54;3.25;;;2.85;;
48951;SDS011;34758;42.148;24.744;2024-02-14T13:19:24;3.92;;;3.17;;
48951;SDS011;34758;42.148;24.744;2024-02-14T13:21:51;4.80;;;3.08;;
48951;SDS011;34758;42.148;24.744;2024-02-14T13:24:20;4.90;;;3.40;;
48951;SDS011;34758;42.148;24.744;2024-02-14T13:26:48;3.60;;;3.30;;
48951;SDS011;34758;42.148;24.744;2024-02-14T13:29:19;3.15;;;2.83;;
48951;SDS011;34758;42.148;24.744;2024-02-14T13:31:47;3.45;;;2.83;;
48951;SDS011;34758;42.148;24.744;2024-02-14T13:34:17;4.97;;;3.60;;
48951;SDS011;34758;42.148;24.744;2024-02-14T13:36:47;5.07;;;2.90;;
48951;SDS011;34758;42.148;24.744;2024-02-14T13:39:18;3.53;;;3.22;;
48951;SDS011;34758;42.148;24.744;2024-02-14T13:41:46;6.72;;;2.97;;
48951;SDS011;34758;42.148;24.744;2024-02-14T13:44:13;6.57;;;3.35;;
48951;SDS011;34758;42.148;24.744;2024-02-14T13:46:43;3.38;;;3.08;;
48951;SDS011;34758;42.148;24.744;2024-02-14T13:49:17;5.70;;;3.88;;
48951;SDS011;34758;42.148;24.744;2024-02-14T13:51:50;4.82;;;3.30;;
48951;SDS011;34758;42.148;24.744;2024-02-14T13:54:18;4.15;;;3.28;;
48951;SDS011;34758;42.148;24.744;2024-02-14T13:56:48;4.25;;;3.60;;
48951;SDS011;34758;42.148;24.744;2024-02-14T13:59:16;3.55;;;3.05;;
48951;SDS011;34758;42.148;24.744;2024-02-14T14:01:48;4.15;;;3.05;;
48951;SDS011;34758;42.148;24.744;2024-02-14T14:04:15;4.43;;;3.58;;
48951;SDS011;34758;42.148;24.744;2024-02-14T14:06:44;4.80;;;3.10;;
48951;SDS011;34758;42.148;24.744;2024-02-14T14:09:13;3.55;;;3.22;;
48951;SDS011;34758;42.148;24.744;2024-02-14T14:11:42;3.58;;;3.13;;
48951;SDS011;34758;42.148;24.744;2024-02-14T14:14:10;6.20;;;3.97;;
48951;SDS011;34758;42.148;24.744;2024-02-14T14:16:43;6.68;;;4.28;;
48951;SDS011;34758;42.148;24.744;2024-02-14T14:19:12;5.40;;;3.47;;
48951;SDS011;34758;42.148;24.744;2024-02-14T14:21:39;4.65;;;4.05;;
48951;SDS011;34758;42.148;24.744;2024-02-14T14:24:08;4.43;;;3.70;;
48951;SDS011;34758;42.148;24.744;2024-02-14T14:26:42;4.03;;;3.60;;
48951;SDS011;34758;42.148;24.744;2024-02-14T14:29:09;5.75;;;3.50;;
48951;SDS011;34758;42.148;24.744;2024-02-14T14:31:38;4.43;;;3.10;;
48951;SDS011;34758;42.148;24.744;2024-02-14T14:34:06;6.63;;;3.80;;
48951;SDS011;34758;42.148;24.744;2024-02-14T14:36:36;4.70;;;3.55;;
48951;SDS011;34758;42.148;24.744;2024-02-14T14:39:07;5.32;;;4.00;;
48951;SDS011;34758;42.148;24.744;2024-02-14T14:41:37;6.60;;;3.53;;
48951;SDS011;34758;42.148;24.744;2024-02-14T14:44:05;6.78;;;3.58;;
48951;SDS011;34758;42.148;24.744;2024-02-14T14:46:33;5.63;;;3.95;;
48951;SDS011;34758;42.148;24.744;2024-02-14T14:49:06;5.60;;;3.60;;
48951;SDS011;34758;42.148;24.744;2024-02-14T14:51:36;7.15;;;3.50;;
48951;SDS011;34758;42.148;24.744;2024-02-14T14:54:04;4.95;;;3.55;;
48951;SDS011;34758;42.148;24.744;2024-02-14T14:56:32;4.22;;;3.60;;
48951;SDS011;34758;42.148;24.744;2024-02-14T14:59:01;5.45;;;2.92;;
48951;SDS011;34758;42.148;24.744;2024-02-14T15:01:31;4.25;;;3.50;;